createdAt,value
2022-08-22T00:03:11.175Z,0.8
2022-08-22T00:07:45.565Z,1.6
2022-08-22T00:12:45.339Z,1
2022-08-22T00:17:45.124Z,1.2
2022-08-22T00:22:44.920Z,1
2022-08-22T00:27:45.161Z,1.4
2022-08-22T00:32:44.546Z,1
2022-08-22T00:37:44.281Z,1.6
2022-08-22T00:42:44.064Z,1.4
2022-08-22T00:47:43.868Z,1.3
2022-08-22T00:52:43.643Z,1.5
2022-08-22T00:57:43.407Z,1.2
2022-08-22T01:02:43.172Z,1.7
2022-08-22T01:07:42.950Z,1.7
2022-08-22T01:12:42.713Z,1.4
2022-08-22T01:17:42.519Z,1.4
2022-08-22T01:22:42.244Z,1.6
2022-08-22T01:27:42.045Z,1.3
2022-08-22T01:32:41.766Z,1.8
2022-08-22T01:37:43.869Z,2
2022-08-22T01:42:41.340Z,2.3
2022-08-22T01:47:41.120Z,2.3
2022-08-22T01:52:40.902Z,1.7
2022-08-22T01:57:40.699Z,2
2022-08-22T02:02:40.477Z,1.7
2022-08-22T02:07:40.221Z,1.5
2022-08-22T02:12:40.016Z,2.2
2022-08-22T02:17:39.784Z,2
2022-08-22T02:22:44.355Z,1.7
2022-08-22T02:27:39.277Z,1.7
2022-08-22T02:32:38.988Z,1.6
2022-08-22T02:37:38.751Z,2.8
2022-08-22T02:42:38.511Z,1.7
2022-08-22T02:47:38.286Z,2.3
2022-08-22T02:52:37.963Z,2.5
2022-08-22T02:57:39.700Z,2.6
2022-08-22T03:02:37.465Z,2.5
2022-08-22T03:07:37.239Z,2
2022-08-22T03:12:36.957Z,2.1
2022-08-22T03:17:36.719Z,3
2022-08-22T03:22:36.500Z,2.5
2022-08-22T03:27:36.216Z,2.6
2022-08-22T03:32:35.977Z,2
2022-08-22T03:37:35.700Z,2
2022-08-22T03:42:35.444Z,3.5
2022-08-22T03:47:35.171Z,2.6
2022-08-22T03:52:34.927Z,2.6
2022-08-22T03:57:36.059Z,2.5
2022-08-22T04:02:43.222Z,3.5
2022-08-22T04:07:34.194Z,2.5
2022-08-22T04:12:33.916Z,3
2022-08-22T04:17:33.710Z,3.3
2022-08-22T04:22:34.872Z,2.9
2022-08-22T04:27:33.232Z,3.2
2022-08-22T04:32:32.941Z,2.5
2022-08-22T04:37:32.716Z,2.3
2022-08-22T04:42:33.706Z,2.7
2022-08-22T04:47:32.263Z,4.4
2022-08-22T04:52:31.995Z,4.4
2022-08-22T04:57:31.790Z,4.1
2022-08-22T05:02:31.564Z,3.7
2022-08-22T05:07:32.377Z,3.4
2022-08-22T05:12:31.773Z,3.8
2022-08-22T05:17:30.917Z,3
2022-08-22T05:22:30.706Z,4.2
2022-08-22T05:27:30.496Z,3.2
2022-08-22T05:32:30.255Z,2.9
2022-08-22T05:37:30.003Z,3.4
2022-08-22T05:42:29.774Z,3.5
2022-08-22T05:47:29.520Z,4.1
2022-08-22T05:52:29.236Z,3.1
2022-08-22T05:57:29.031Z,3.7
2022-08-22T06:02:28.797Z,2.9
2022-08-22T06:07:28.583Z,2.9
2022-08-22T06:12:28.374Z,6.4
2022-08-22T06:17:28.179Z,4.3
2022-08-22T06:22:27.949Z,3.3
2022-08-22T06:27:31.076Z,3.5
2022-08-22T06:32:44.387Z,2.6
2022-08-22T06:37:27.327Z,5.1
2022-08-22T06:47:27.182Z,29.8
2022-08-22T06:52:26.646Z,10.4
2022-08-22T06:57:26.550Z,6.9
2022-08-22T07:02:26.214Z,3.5
2022-08-22T07:07:25.990Z,6.4
2022-08-22T07:12:25.763Z,3.3
2022-08-22T07:17:25.511Z,3.1
2022-08-22T07:22:25.258Z,2.2
2022-08-22T07:27:25.002Z,2.8
2022-08-22T07:32:24.790Z,3.5
2022-08-22T07:37:24.554Z,4.2
2022-08-22T07:42:27.489Z,3.1
2022-08-22T07:47:26.696Z,2.9
2022-08-22T07:52:23.839Z,2.8
2022-08-22T07:57:23.614Z,3
2022-08-22T08:02:23.361Z,3.2
2022-08-22T08:07:23.172Z,5.3
2022-08-22T08:12:22.957Z,4
2022-08-22T08:17:22.703Z,4.8
2022-08-22T08:22:23.640Z,2.5
2022-08-22T08:27:22.238Z,4
2022-08-22T08:32:22.090Z,3
2022-08-22T08:37:21.838Z,3.2
2022-08-22T08:42:21.554Z,5.7
2022-08-22T08:47:21.368Z,3.5
2022-08-22T08:52:21.081Z,4.7
2022-08-22T08:57:20.894Z,4.6
2022-08-22T09:02:23.489Z,7
2022-08-22T09:07:22.898Z,3.8
2022-08-22T09:12:20.195Z,5.2
2022-08-22T09:17:20.002Z,3.9
2022-08-22T09:22:19.718Z,3.6
2022-08-22T09:27:19.463Z,3.3
2022-08-22T09:32:19.254Z,3.3
2022-08-22T09:37:18.976Z,4.3
2022-08-22T09:42:18.777Z,4
2022-08-22T09:47:24.516Z,4.3
2022-08-22T09:52:33.113Z,3
2022-08-22T09:57:18.116Z,4
2022-08-22T10:02:17.923Z,3.7
2022-08-22T10:07:17.639Z,3.7
2022-08-22T10:12:17.427Z,3.6
2022-08-22T10:17:21.880Z,5.2
2022-08-22T10:22:16.975Z,4.1
2022-08-22T10:27:16.803Z,4.1
2022-08-22T10:32:16.614Z,3.5
2022-08-22T10:37:16.358Z,3.4
2022-08-22T10:42:18.659Z,3.3
2022-08-22T10:47:15.932Z,2.9
2022-08-22T10:52:16.318Z,3.7
2022-08-22T10:57:15.482Z,3.9
2022-08-22T11:02:15.350Z,4.7
2022-08-22T11:07:15.184Z,4.1
2022-08-22T11:12:14.995Z,3.4
2022-08-22T11:17:27.488Z,3.7
2022-08-22T11:22:14.618Z,4.1
2022-08-22T11:27:14.423Z,6.2
2022-08-22T11:32:14.232Z,5.8
2022-08-22T11:37:14.073Z,6
2022-08-22T11:42:13.802Z,5.3
2022-08-22T11:47:13.670Z,5.6
2022-08-22T11:52:13.508Z,4.7
2022-08-22T11:57:13.331Z,5.2
2022-08-22T12:02:13.199Z,4.9
2022-08-22T12:07:12.959Z,4.7
2022-08-22T12:12:12.749Z,4.6
2022-08-22T12:17:21.268Z,3.7
2022-08-22T12:22:12.369Z,3.4
2022-08-22T12:27:12.168Z,4.3
2022-08-22T12:32:12.025Z,6.2
2022-08-22T12:37:11.877Z,4.9
2022-08-22T12:42:11.698Z,3.5
2022-08-22T12:47:11.493Z,3.6
2022-08-22T12:52:11.360Z,3.4
2022-08-22T12:57:23.464Z,4.3
2022-08-22T13:02:10.994Z,4.5
2022-08-22T13:07:10.824Z,3.6
2022-08-22T13:12:10.609Z,3.1
2022-08-22T13:17:25.146Z,4.6
2022-08-22T13:22:10.299Z,5
2022-08-22T13:27:11.322Z,3.7
2022-08-22T13:32:09.948Z,4.2
2022-08-22T13:37:10.091Z,4
2022-08-22T13:40:55.549Z,4
2022-08-22T13:42:14.552Z,3.9
2022-08-22T13:47:13.651Z,4.9
2022-08-22T13:52:14.446Z,4.4
2022-08-22T13:57:09.061Z,4.5
2022-08-22T14:02:15.130Z,4.6
2022-08-22T14:07:08.738Z,3.7
2022-08-22T14:12:11.935Z,7
2022-08-22T14:17:08.412Z,4.3
2022-08-22T14:22:08.237Z,7
2022-08-22T14:27:08.113Z,5.9
2022-08-22T14:28:27.334Z,5.9
2022-08-22T14:32:08.804Z,5.4
2022-08-22T14:37:07.740Z,4.2
2022-08-22T14:42:10.099Z,4.5
2022-08-22T14:47:15.819Z,5.9
2022-08-22T14:52:07.213Z,6.2
2022-08-22T14:57:10.421Z,5.2
2022-08-22T15:02:07.144Z,4.7
2022-08-22T15:07:06.691Z,4.2
2022-08-22T15:12:06.526Z,4.5
2022-08-22T15:17:06.350Z,3.7
2022-08-22T15:22:06.204Z,3.5
2022-08-22T15:27:07.115Z,3.3
2022-08-22T15:32:05.909Z,2.8
2022-08-22T15:37:09.817Z,2.8
2022-08-22T15:42:05.594Z,2.9
2022-08-22T15:47:05.441Z,4
2022-08-22T15:52:05.316Z,3.2
2022-08-22T16:02:05.194Z,4.7
2022-08-22T16:12:04.770Z,4.1
2022-08-22T16:17:04.574Z,3.6
2022-08-22T16:22:04.372Z,3.7
2022-08-22T16:27:04.233Z,3.5
2022-08-22T16:32:04.062Z,4.7
2022-08-22T16:37:05.030Z,4.3
2022-08-22T16:42:03.712Z,4.3
2022-08-22T16:47:03.557Z,4.2
2022-08-22T16:52:03.399Z,4.6
2022-08-22T16:57:03.207Z,6.4
2022-08-22T17:02:03.033Z,4.8
2022-08-22T17:07:02.855Z,5.2
2022-08-22T17:12:02.674Z,4.8
2022-08-22T17:17:02.454Z,3.7
2022-08-22T17:22:02.262Z,6.3
2022-08-22T17:27:02.078Z,4.9
2022-08-22T17:32:01.934Z,4.5
2022-08-22T17:37:01.709Z,4.7
2022-08-22T17:42:01.563Z,3.9
2022-08-22T17:47:01.348Z,4.4
2022-08-22T17:52:01.167Z,5
2022-08-22T17:57:05.822Z,5.3
2022-08-22T18:02:00.753Z,4.8
2022-08-22T18:07:00.583Z,5.8
2022-08-22T18:12:00.457Z,6.5
2022-08-22T18:17:00.234Z,4.5
2022-08-22T18:21:59.965Z,4.2
2022-08-22T18:26:59.774Z,5.2
2022-08-22T18:31:59.535Z,4.9
2022-08-22T18:36:59.305Z,6.7
2022-08-22T18:41:59.090Z,4.2
2022-08-22T18:46:58.843Z,6.3
2022-08-22T18:51:58.604Z,7
2022-08-22T18:56:58.376Z,6.5
2022-08-22T19:01:58.200Z,9.7
2022-08-22T19:06:57.928Z,13.2
2022-08-22T19:11:57.717Z,8.6
2022-08-22T19:16:58.815Z,11
2022-08-22T19:21:57.226Z,9.7
2022-08-22T19:26:57.020Z,8.1
2022-08-22T19:31:56.799Z,10.7
2022-08-22T19:36:56.575Z,10
2022-08-22T19:41:56.298Z,8.5
2022-08-22T19:46:56.084Z,9.7
2022-08-22T19:51:55.844Z,11.6
2022-08-22T19:56:55.558Z,10.6
2022-08-22T20:01:55.368Z,8.6
2022-08-22T20:06:55.100Z,11
2022-08-22T20:11:54.924Z,6.7
2022-08-22T20:14:07.435Z,6.7
2022-08-22T20:16:54.671Z,8.4
2022-08-22T20:21:54.478Z,7.3
2022-08-22T20:27:12.825Z,8.3
2022-08-22T20:31:58.181Z,6.1
2022-08-22T20:37:09.821Z,7
2022-08-22T20:41:53.673Z,10.4
2022-08-22T20:46:55.198Z,8
2022-08-22T20:51:53.235Z,8.1
2022-08-22T20:56:53.898Z,10.9
2022-08-22T21:01:52.851Z,12.5
2022-08-22T21:06:52.586Z,10.9
2022-08-22T21:11:52.429Z,10
2022-08-22T21:16:52.198Z,11.6
2022-08-22T21:21:51.999Z,6.2
2022-08-22T21:26:51.782Z,7.1
2022-08-22T21:31:51.599Z,6.9
2022-08-22T21:36:51.359Z,6.7
2022-08-22T21:41:51.197Z,8.6
2022-08-22T21:46:52.465Z,7.2
2022-08-22T21:51:50.748Z,7.6
2022-08-22T21:56:50.503Z,8.3
2022-08-22T22:01:50.230Z,8
2022-08-22T22:06:50.021Z,9.5
2022-08-22T22:11:49.769Z,8.8
2022-08-22T22:16:49.546Z,8.9
2022-08-22T22:21:49.482Z,10.1
2022-08-22T22:26:49.072Z,11.3
2022-08-22T22:31:48.849Z,9.7
2022-08-22T22:36:48.617Z,10.2
2022-08-22T22:41:48.385Z,8.4
2022-08-22T22:46:48.148Z,6.7
2022-08-22T22:51:47.929Z,6.9
2022-08-22T22:56:47.905Z,10.3
2022-08-22T23:01:47.455Z,6.8
2022-08-22T23:06:47.184Z,6.7
2022-08-22T23:11:46.913Z,5.4
2022-08-22T23:16:46.685Z,7.3
2022-08-22T23:21:46.424Z,7.3
2022-08-22T23:26:46.184Z,7.9
2022-08-22T23:31:45.970Z,8.9
2022-08-22T23:36:45.665Z,8.1
2022-08-22T23:41:45.448Z,6.8
2022-08-22T23:46:45.201Z,6.6
2022-08-22T23:51:44.964Z,7.3
2022-08-22T23:56:44.707Z,7
